sensor_id;sensor_type;location;lat;lon;timestamp;P1;P4;P2;P0;N10;N4;N25;N1;N05;TS
83777;SPS30;74444;48.226;16.348;2023-12-22T00:04:46;0.8;;0.9;0.7;;;;;;
83777;SPS30;74444;48.226;16.348;2023-12-22T00:09:46;0.9;;1.0;0.8;;;;;;
83777;SPS30;74444;48.226;16.348;2023-12-22T00:14:46;1.0;;1.0;0.9;;;;;;
83777;SPS30;74444;48.226;16.348;2023-12-22T00:19:46;1.0;;1.1;0.9;;;;;;
83777;SPS30;74444;48.226;16.348;2023-12-22T00:24:46;0.5;;0.5;0.4;;;;;;
83777;SPS30;74444;48.226;16.348;2023-12-22T00:29:46;0.7;;0.7;0.6;;;;;;
83777;SPS30;74444;48.226;16.348;2023-12-22T00:34:46;0.7;;0.8;0.7;;;;;;
83777;SPS30;74444;48.226;16.348;2023-12-22T00:39:46;0.9;;1.0;0.8;;;;;;
83777;SPS30;74444;48.226;16.348;2023-12-22T00:44:46;0.7;;0.8;0.6;;;;;;
83777;SPS30;74444;48.226;16.348;2023-12-22T00:49:46;1.6;;1.7;1.4;;;;;;
83777;SPS30;74444;48.226;16.348;2023-12-22T00:54:46;1.1;;1.2;0.9;;;;;;
83777;SPS30;74444;48.226;16.348;2023-12-22T00:59:46;0.9;;1.0;0.8;;;;;;
83777;SPS30;74444;48.226;16.348;2023-12-22T01:04:46;0.8;;0.9;0.7;;;;;;
83777;SPS30;74444;48.226;16.348;2023-12-22T01:09:46;0.7;;0.8;0.6;;;;;;
83777;SPS30;74444;48.226;16.348;2023-12-22T01:14:46;0.8;;0.9;0.7;;;;;;
83777;SPS30;74444;48.226;16.348;2023-12-22T01:19:46;0.8;;0.9;0.7;;;;;;
83777;SPS30;74444;48.226;16.348;2023-12-22T01:24:46;1.1;;1.2;0.9;;;;;;
83777;SPS30;74444;48.226;16.348;2023-12-22T01:29:46;0.9;;1.0;0.8;;;;;;
83777;SPS30;74444;48.226;16.348;2023-12-22T01:34:46;0.8;;0.9;0.7;;;;;;
83777;SPS30;74444;48.226;16.348;2023-12-22T01:39:46;1.0;;1.1;0.9;;;;;;
83777;SPS30;74444;48.226;16.348;2023-12-22T01:44:46;1.0;;1.1;0.8;;;;;;
83777;SPS30;74444;48.226;16.348;2023-12-22T01:49:46;1.1;;1.2;0.9;;;;;;
83777;SPS30;74444;48.226;16.348;2023-12-22T01:54:46;1.3;;1.5;1.1;;;;;;
83777;SPS30;74444;48.226;16.348;2023-12-22T01:59:46;1.3;;1.4;1.2;;;;;;
83777;SPS30;74444;48.226;16.348;2023-12-22T02:04:46;1.0;;1.1;0.8;;;;;;
83777;SPS30;74444;48.226;16.348;2023-12-22T02:09:46;1.1;;1.2;0.9;;;;;;
83777;SPS30;74444;48.226;16.348;2023-12-22T02:14:46;1.0;;1.2;0.9;;;;;;
83777;SPS30;74444;48.226;16.348;2023-12-22T02:19:46;0.7;;0.9;0.6;;;;;;
83777;SPS30;74444;48.226;16.348;2023-12-22T02:24:46;0.7;;0.8;0.6;;;;;;
83777;SPS30;74444;48.226;16.348;2023-12-22T02:29:48;0.6;;0.7;0.6;;;;;;
83777;SPS30;74444;48.226;16.348;2023-12-22T02:34:46;0.6;;0.7;0.5;;;;;;
83777;SPS30;74444;48.226;16.348;2023-12-22T02:39:46;0.6;;0.6;0.5;;;;;;
83777;SPS30;74444;48.226;16.348;2023-12-22T02:44:46;1.1;;1.3;0.9;;;;;;
83777;SPS30;74444;48.226;16.348;2023-12-22T02:49:46;1.1;;1.2;0.9;;;;;;
83777;SPS30;74444;48.226;16.348;2023-12-22T02:54:46;1.2;;1.4;0.9;;;;;;
83777;SPS30;74444;48.226;16.348;2023-12-22T02:59:46;1.2;;1.6;0.9;;;;;;
83777;SPS30;74444;48.226;16.348;2023-12-22T03:04:46;1.6;;2.1;1.1;;;;;;
83777;SPS30;74444;48.226;16.348;2023-12-22T03:09:46;2.1;;2.8;1.5;;;;;;
83777;SPS30;74444;48.226;16.348;2023-12-22T03:14:46;2.5;;3.4;1.7;;;;;;
83777;SPS30;74444;48.226;16.348;2023-12-22T03:19:46;2.3;;3.4;1.4;;;;;;
83777;SPS30;74444;48.226;16.348;2023-12-22T03:24:46;1.7;;2.4;1.0;;;;;;
83777;SPS30;74444;48.226;16.348;2023-12-22T03:29:46;2.1;;3.0;1.3;;;;;;
83777;SPS30;74444;48.226;16.348;2023-12-22T03:34:46;2.0;;2.8;1.3;;;;;;
83777;SPS30;74444;48.226;16.348;2023-12-22T03:39:46;2.1;;2.9;1.3;;;;;;
83777;SPS30;74444;48.226;16.348;2023-12-22T03:44:46;1.6;;2.1;1.1;;;;;;
83777;SPS30;74444;48.226;16.348;2023-12-22T03:49:46;1.7;;2.2;1.2;;;;;;
83777;SPS30;74444;48.226;16.348;2023-12-22T03:54:46;1.2;;1.5;0.9;;;;;;
83777;SPS30;74444;48.226;16.348;2023-12-22T03:59:46;1.2;;1.5;0.9;;;;;;
83777;SPS30;74444;48.226;16.348;2023-12-22T04:04:46;1.1;;1.4;0.8;;;;;;
83777;SPS30;74444;48.226;16.348;2023-12-22T04:09:46;1.2;;1.5;0.9;;;;;;
83777;SPS30;74444;48.226;16.348;2023-12-22T04:14:46;1.3;;1.6;1.0;;;;;;
83777;SPS30;74444;48.226;16.348;2023-12-22T04:19:46;1.1;;1.4;0.8;;;;;;
83777;SPS30;74444;48.226;16.348;2023-12-22T04:24:46;0.9;;1.1;0.7;;;;;;
83777;SPS30;74444;48.226;16.348;2023-12-22T04:29:46;1.2;;1.4;0.9;;;;;;
83777;SPS30;74444;48.226;16.348;2023-12-22T04:34:46;0.8;;1.0;0.7;;;;;;
83777;SPS30;74444;48.226;16.348;2023-12-22T04:39:46;1.4;;1.6;1.2;;;;;;
83777;SPS30;74444;48.226;16.348;2023-12-22T04:44:46;1.0;;1.1;0.8;;;;;;
83777;SPS30;74444;48.226;16.348;2023-12-22T04:49:46;1.3;;1.5;1.1;;;;;;
83777;SPS30;74444;48.226;16.348;2023-12-22T04:54:46;0.9;;1.1;0.8;;;;;;
83777;SPS30;74444;48.226;16.348;2023-12-22T04:59:46;1.0;;1.1;0.8;;;;;;
83777;SPS30;74444;48.226;16.348;2023-12-22T05:04:46;1.0;;1.1;0.8;;;;;;
83777;SPS30;74444;48.226;16.348;2023-12-22T05:09:46;1.0;;1.2;0.8;;;;;;
83777;SPS30;74444;48.226;16.348;2023-12-22T05:14:46;1.3;;1.5;1.0;;;;;;
83777;SPS30;74444;48.226;16.348;2023-12-22T05:19:46;1.4;;1.6;1.1;;;;;;
83777;SPS30;74444;48.226;16.348;2023-12-22T05:24:46;1.5;;1.7;1.2;;;;;;
83777;SPS30;74444;48.226;16.348;2023-12-22T05:29:46;1.2;;1.4;1.0;;;;;;
83777;SPS30;74444;48.226;16.348;2023-12-22T05:34:46;1.4;;1.6;1.1;;;;;;
83777;SPS30;74444;48.226;16.348;2023-12-22T05:39:46;2.1;;2.4;1.7;;;;;;
83777;SPS30;74444;48.226;16.348;2023-12-22T05:44:46;1.6;;1.8;1.3;;;;;;
83777;SPS30;74444;48.226;16.348;2023-12-22T05:49:46;1.4;;1.7;1.2;;;;;;
83777;SPS30;74444;48.226;16.348;2023-12-22T05:54:46;1.9;;2.3;1.5;;;;;;
83777;SPS30;74444;48.226;16.348;2023-12-22T05:59:46;1.6;;2.0;1.2;;;;;;
83777;SPS30;74444;48.226;16.348;2023-12-22T06:04:46;1.5;;1.8;1.1;;;;;;
83777;SPS30;74444;48.226;16.348;2023-12-22T06:09:46;1.8;;2.3;1.4;;;;;;
83777;SPS30;74444;48.226;16.348;2023-12-22T06:14:46;2.3;;2.7;1.8;;;;;;
83777;SPS30;74444;48.226;16.348;2023-12-22T06:19:48;2.4;;2.8;2.0;;;;;;
83777;SPS30;74444;48.226;16.348;2023-12-22T06:24:46;1.9;;2.2;1.6;;;;;;
83777;SPS30;74444;48.226;16.348;2023-12-22T06:29:46;1.7;;1.9;1.4;;;;;;
83777;SPS30;74444;48.226;16.348;2023-12-22T06:34:46;2.0;;2.3;1.7;;;;;;
83777;SPS30;74444;48.226;16.348;2023-12-22T06:39:46;1.7;;2.0;1.4;;;;;;
83777;SPS30;74444;48.226;16.348;2023-12-22T06:44:46;1.4;;1.6;1.2;;;;;;
83777;SPS30;74444;48.226;16.348;2023-12-22T06:49:46;2.0;;2.2;1.7;;;;;;
83777;SPS30;74444;48.226;16.348;2023-12-22T06:54:46;1.7;;1.9;1.5;;;;;;
83777;SPS30;74444;48.226;16.348;2023-12-22T06:59:46;1.7;;1.8;1.5;;;;;;
83777;SPS30;74444;48.226;16.348;2023-12-22T07:09:46;1.7;;1.8;1.5;;;;;;
83777;SPS30;74444;48.226;16.348;2023-12-22T07:14:46;1.5;;1.6;1.4;;;;;;
83777;SPS30;74444;48.226;16.348;2023-12-22T07:19:46;1.9;;2.0;1.7;;;;;;
83777;SPS30;74444;48.226;16.348;2023-12-22T07:24:46;1.4;;1.5;1.2;;;;;;
83777;SPS30;74444;48.226;16.348;2023-12-22T07:29:46;1.7;;1.8;1.6;;;;;;
83777;SPS30;74444;48.226;16.348;2023-12-22T07:34:46;1.8;;2.0;1.6;;;;;;
83777;SPS30;74444;48.226;16.348;2023-12-22T07:39:46;2.2;;2.4;1.8;;;;;;
83777;SPS30;74444;48.226;16.348;2023-12-22T07:44:46;1.6;;1.7;1.4;;;;;;
83777;SPS30;74444;48.226;16.348;2023-12-22T07:49:46;2.0;;2.2;1.8;;;;;;
83777;SPS30;74444;48.226;16.348;2023-12-22T07:54:46;1.7;;1.8;1.5;;;;;;
83777;SPS30;74444;48.226;16.348;2023-12-22T07:59:46;2.0;;2.1;1.9;;;;;;
83777;SPS30;74444;48.226;16.348;2023-12-22T08:04:46;1.5;;1.6;1.3;;;;;;
83777;SPS30;74444;48.226;16.348;2023-12-22T08:09:46;1.4;;1.5;1.3;;;;;;
83777;SPS30;74444;48.226;16.348;2023-12-22T08:14:46;1.0;;1.1;1.0;;;;;;
83777;SPS30;74444;48.226;16.348;2023-12-22T08:19:46;1.3;;1.4;1.2;;;;;;
83777;SPS30;74444;48.226;16.348;2023-12-22T08:24:46;1.0;;1.0;0.9;;;;;;
83777;SPS30;74444;48.226;16.348;2023-12-22T08:29:46;1.3;;1.3;1.2;;;;;;
83777;SPS30;74444;48.226;16.348;2023-12-22T08:34:46;1.2;;1.2;1.1;;;;;;
83777;SPS30;74444;48.226;16.348;2023-12-22T08:39:46;1.4;;1.5;1.3;;;;;;
83777;SPS30;74444;48.226;16.348;2023-12-22T08:44:46;1.3;;1.4;1.2;;;;;;
83777;SPS30;74444;48.226;16.348;2023-12-22T08:49:46;1.7;;1.7;1.6;;;;;;
83777;SPS30;74444;48.226;16.348;2023-12-22T08:54:46;1.2;;1.2;1.1;;;;;;
83777;SPS30;74444;48.226;16.348;2023-12-22T08:59:46;1.3;;1.3;1.2;;;;;;
83777;SPS30;74444;48.226;16.348;2023-12-22T09:04:46;1.4;;1.4;1.3;;;;;;
83777;SPS30;74444;48.226;16.348;2023-12-22T09:09:46;1.7;;1.7;1.6;;;;;;
83777;SPS30;74444;48.226;16.348;2023-12-22T09:14:46;1.3;;1.4;1.2;;;;;;
83777;SPS30;74444;48.226;16.348;2023-12-22T09:19:46;1.3;;1.4;1.2;;;;;;
83777;SPS30;74444;48.226;16.348;2023-12-22T09:24:46;1.7;;1.8;1.5;;;;;;
83777;SPS30;74444;48.226;16.348;2023-12-22T09:29:46;2.5;;2.6;2.2;;;;;;
83777;SPS30;74444;48.226;16.348;2023-12-22T09:34:46;2.4;;2.5;2.1;;;;;;
83777;SPS30;74444;48.226;16.348;2023-12-22T09:39:46;1.8;;1.9;1.6;;;;;;
83777;SPS30;74444;48.226;16.348;2023-12-22T09:44:46;1.3;;1.4;1.1;;;;;;
83777;SPS30;74444;48.226;16.348;2023-12-22T09:49:46;1.1;;1.2;1.0;;;;;;
83777;SPS30;74444;48.226;16.348;2023-12-22T09:54:46;1.4;;1.5;1.3;;;;;;
83777;SPS30;74444;48.226;16.348;2023-12-22T09:59:46;1.0;;1.1;0.9;;;;;;
83777;SPS30;74444;48.226;16.348;2023-12-22T10:04:46;0.9;;1.0;0.8;;;;;;
83777;SPS30;74444;48.226;16.348;2023-12-22T10:09:46;1.4;;1.5;1.3;;;;;;
83777;SPS30;74444;48.226;16.348;2023-12-22T10:14:46;1.4;;1.5;1.3;;;;;;
83777;SPS30;74444;48.226;16.348;2023-12-22T10:19:46;1.6;;1.7;1.5;;;;;;
83777;SPS30;74444;48.226;16.348;2023-12-22T10:24:46;1.3;;1.4;1.2;;;;;;
83777;SPS30;74444;48.226;16.348;2023-12-22T10:29:46;1.1;;1.1;1.0;;;;;;
83777;SPS30;74444;48.226;16.348;2023-12-22T10:34:46;2.1;;2.2;1.9;;;;;;
83777;SPS30;74444;48.226;16.348;2023-12-22T10:39:46;1.8;;1.9;1.7;;;;;;
83777;SPS30;74444;48.226;16.348;2023-12-22T10:44:46;1.1;;1.1;1.1;;;;;;
83777;SPS30;74444;48.226;16.348;2023-12-22T10:49:46;1.4;;1.4;1.3;;;;;;
83777;SPS30;74444;48.226;16.348;2023-12-22T10:54:46;1.6;;1.7;1.5;;;;;;
83777;SPS30;74444;48.226;16.348;2023-12-22T10:59:47;2.3;;2.4;2.1;;;;;;
83777;SPS30;74444;48.226;16.348;2023-12-22T11:04:47;2.6;;2.8;2.3;;;;;;
83777;SPS30;74444;48.226;16.348;2023-12-22T11:09:46;1.4;;1.5;1.3;;;;;;
83777;SPS30;74444;48.226;16.348;2023-12-22T11:14:46;1.2;;1.2;1.1;;;;;;
83777;SPS30;74444;48.226;16.348;2023-12-22T11:19:46;1.2;;1.2;1.1;;;;;;
83777;SPS30;74444;48.226;16.348;2023-12-22T11:24:47;1.2;;1.2;1.0;;;;;;
83777;SPS30;74444;48.226;16.348;2023-12-22T11:29:46;1.2;;1.3;1.1;;;;;;
83777;SPS30;74444;48.226;16.348;2023-12-22T11:34:46;1.3;;1.3;1.2;;;;;;
83777;SPS30;74444;48.226;16.348;2023-12-22T11:39:46;1.3;;1.3;1.2;;;;;;
83777;SPS30;74444;48.226;16.348;2023-12-22T11:44:46;0.8;;0.9;0.7;;;;;;
83777;SPS30;74444;48.226;16.348;2023-12-22T11:49:46;0.9;;1.0;0.8;;;;;;
83777;SPS30;74444;48.226;16.348;2023-12-22T11:54:50;1.3;;1.3;1.2;;;;;;
83777;SPS30;74444;48.226;16.348;2023-12-22T11:59:46;1.4;;1.5;1.3;;;;;;
83777;SPS30;74444;48.226;16.348;2023-12-22T12:04:48;0.9;;0.9;0.8;;;;;;
83777;SPS30;74444;48.226;16.348;2023-12-22T12:09:46;1.1;;1.2;1.0;;;;;;
83777;SPS30;74444;48.226;16.348;2023-12-22T12:14:46;1.9;;2.1;1.7;;;;;;
83777;SPS30;74444;48.226;16.348;2023-12-22T12:19:46;1.3;;1.4;1.2;;;;;;
83777;SPS30;74444;48.226;16.348;2023-12-22T12:24:47;1.0;;1.0;0.9;;;;;;
83777;SPS30;74444;48.226;16.348;2023-12-22T12:29:46;1.5;;1.6;1.4;;;;;;
83777;SPS30;74444;48.226;16.348;2023-12-22T12:34:46;0.7;;0.7;0.6;;;;;;
83777;SPS30;74444;48.226;16.348;2023-12-22T12:39:46;1.1;;1.2;1.0;;;;;;
83777;SPS30;74444;48.226;16.348;2023-12-22T12:44:46;1.1;;1.1;1.0;;;;;;
83777;SPS30;74444;48.226;16.348;2023-12-22T12:49:46;1.1;;1.2;1.0;;;;;;
83777;SPS30;74444;48.226;16.348;2023-12-22T12:54:46;1.3;;1.3;1.2;;;;;;
83777;SPS30;74444;48.226;16.348;2023-12-22T12:59:46;1.3;;1.3;1.1;;;;;;
83777;SPS30;74444;48.226;16.348;2023-12-22T13:04:46;1.5;;1.6;1.3;;;;;;
83777;SPS30;74444;48.226;16.348;2023-12-22T13:09:46;1.7;;1.8;1.5;;;;;;
83777;SPS30;74444;48.226;16.348;2023-12-22T13:14:46;3.8;;4.0;3.5;;;;;;
83777;SPS30;74444;48.226;16.348;2023-12-22T13:19:46;2.7;;2.8;2.5;;;;;;
83777;SPS30;74444;48.226;16.348;2023-12-22T13:24:55;4.8;;4.9;4.5;;;;;;
83777;SPS30;74444;48.226;16.348;2023-12-22T13:29:46;2.4;;2.4;2.2;;;;;;
83777;SPS30;74444;48.226;16.348;2023-12-22T13:34:49;2.8;;3.0;2.6;;;;;;
83777;SPS30;74444;48.226;16.348;2023-12-22T13:39:46;1.4;;1.5;1.3;;;;;;
83777;SPS30;74444;48.226;16.348;2023-12-22T13:44:46;2.4;;2.5;2.2;;;;;;
83777;SPS30;74444;48.226;16.348;2023-12-22T13:49:46;1.4;;1.5;1.3;;;;;;
83777;SPS30;74444;48.226;16.348;2023-12-22T13:54:46;1.4;;1.4;1.3;;;;;;
83777;SPS30;74444;48.226;16.348;2023-12-22T13:59:46;1.4;;1.4;1.3;;;;;;
83777;SPS30;74444;48.226;16.348;2023-12-22T14:04:46;1.7;;1.7;1.6;;;;;;
83777;SPS30;74444;48.226;16.348;2023-12-22T14:09:46;2.0;;2.1;1.9;;;;;;
83777;SPS30;74444;48.226;16.348;2023-12-22T14:14:46;1.8;;1.8;1.6;;;;;;
83777;SPS30;74444;48.226;16.348;2023-12-22T14:19:46;2.1;;2.2;1.9;;;;;;
83777;SPS30;74444;48.226;16.348;2023-12-22T14:24:46;1.4;;1.5;1.2;;;;;;
83777;SPS30;74444;48.226;16.348;2023-12-22T14:29:46;1.1;;1.1;1.0;;;;;;
83777;SPS30;74444;48.226;16.348;2023-12-22T14:34:46;1.3;;1.4;1.2;;;;;;
83777;SPS30;74444;48.226;16.348;2023-12-22T14:39:46;1.2;;1.3;1.0;;;;;;
83777;SPS30;74444;48.226;16.348;2023-12-22T14:44:46;0.9;;1.0;0.8;;;;;;
83777;SPS30;74444;48.226;16.348;2023-12-22T14:49:46;1.1;;1.3;1.0;;;;;;
83777;SPS30;74444;48.226;16.348;2023-12-22T14:54:46;1.4;;1.5;1.2;;;;;;
83777;SPS30;74444;48.226;16.348;2023-12-22T14:59:46;1.3;;1.4;1.1;;;;;;
83777;SPS30;74444;48.226;16.348;2023-12-22T15:04:46;0.6;;0.6;0.5;;;;;;
83777;SPS30;74444;48.226;16.348;2023-12-22T15:09:46;1.4;;1.5;1.3;;;;;;
83777;SPS30;74444;48.226;16.348;2023-12-22T15:14:46;1.2;;1.3;1.1;;;;;;
83777;SPS30;74444;48.226;16.348;2023-12-22T15:19:46;0.9;;0.9;0.8;;;;;;
83777;SPS30;74444;48.226;16.348;2023-12-22T15:24:46;1.0;;1.1;1.0;;;;;;
83777;SPS30;74444;48.226;16.348;2023-12-22T15:29:46;1.6;;1.7;1.5;;;;;;
83777;SPS30;74444;48.226;16.348;2023-12-22T15:34:46;1.9;;1.9;1.7;;;;;;
83777;SPS30;74444;48.226;16.348;2023-12-22T15:39:46;1.9;;1.9;1.8;;;;;;
83777;SPS30;74444;48.226;16.348;2023-12-22T15:44:46;1.5;;1.5;1.4;;;;;;
83777;SPS30;74444;48.226;16.348;2023-12-22T15:49:46;1.4;;1.5;1.3;;;;;;
83777;SPS30;74444;48.226;16.348;2023-12-22T15:54:46;1.1;;1.2;1.0;;;;;;
83777;SPS30;74444;48.226;16.348;2023-12-22T15:59:46;1.2;;1.3;1.1;;;;;;
83777;SPS30;74444;48.226;16.348;2023-12-22T16:04:46;0.7;;0.7;0.6;;;;;;
83777;SPS30;74444;48.226;16.348;2023-12-22T16:09:46;1.2;;1.2;1.1;;;;;;
83777;SPS30;74444;48.226;16.348;2023-12-22T16:14:46;0.8;;0.8;0.7;;;;;;
83777;SPS30;74444;48.226;16.348;2023-12-22T16:19:46;0.9;;1.0;0.9;;;;;;
83777;SPS30;74444;48.226;16.348;2023-12-22T16:24:46;0.6;;0.7;0.6;;;;;;
83777;SPS30;74444;48.226;16.348;2023-12-22T16:29:46;1.3;;1.3;1.2;;;;;;
83777;SPS30;74444;48.226;16.348;2023-12-22T16:34:46;1.1;;1.2;1.0;;;;;;
83777;SPS30;74444;48.226;16.348;2023-12-22T16:39:49;1.1;;1.2;1.0;;;;;;
83777;SPS30;74444;48.226;16.348;2023-12-22T16:44:46;0.9;;1.0;0.8;;;;;;
83777;SPS30;74444;48.226;16.348;2023-12-22T16:49:46;0.9;;0.9;0.8;;;;;;
83777;SPS30;74444;48.226;16.348;2023-12-22T16:54:46;1.0;;1.0;0.9;;;;;;
83777;SPS30;74444;48.226;16.348;2023-12-22T16:59:46;1.4;;1.4;1.3;;;;;;
83777;SPS30;74444;48.226;16.348;2023-12-22T17:04:46;1.3;;1.3;1.2;;;;;;
83777;SPS30;74444;48.226;16.348;2023-12-22T17:09:46;1.0;;1.0;0.9;;;;;;
83777;SPS30;74444;48.226;16.348;2023-12-22T17:14:46;0.9;;0.9;0.8;;;;;;
83777;SPS30;74444;48.226;16.348;2023-12-22T17:19:46;1.0;;1.0;0.9;;;;;;
83777;SPS30;74444;48.226;16.348;2023-12-22T17:24:46;1.2;;1.2;1.1;;;;;;
83777;SPS30;74444;48.226;16.348;2023-12-22T17:29:46;1.6;;1.6;1.5;;;;;;
83777;SPS30;74444;48.226;16.348;2023-12-22T17:34:46;0.9;;1.0;0.9;;;;;;
83777;SPS30;74444;48.226;16.348;2023-12-22T17:39:46;0.9;;0.9;0.8;;;;;;
83777;SPS30;74444;48.226;16.348;2023-12-22T17:44:46;1.0;;1.0;0.9;;;;;;
83777;SPS30;74444;48.226;16.348;2023-12-22T17:49:46;1.0;;1.0;0.9;;;;;;
83777;SPS30;74444;48.226;16.348;2023-12-22T17:54:46;1.2;;1.2;1.1;;;;;;
83777;SPS30;74444;48.226;16.348;2023-12-22T17:59:46;1.2;;1.2;1.1;;;;;;
83777;SPS30;74444;48.226;16.348;2023-12-22T18:04:46;1.1;;1.1;1.0;;;;;;
83777;SPS30;74444;48.226;16.348;2023-12-22T18:09:46;1.9;;1.9;1.8;;;;;;
83777;SPS30;74444;48.226;16.348;2023-12-22T18:14:46;1.0;;1.0;0.9;;;;;;
83777;SPS30;74444;48.226;16.348;2023-12-22T18:19:46;1.4;;1.5;1.3;;;;;;
83777;SPS30;74444;48.226;16.348;2023-12-22T18:24:46;1.7;;1.7;1.6;;;;;;
83777;SPS30;74444;48.226;16.348;2023-12-22T18:29:46;1.2;;1.3;1.1;;;;;;
83777;SPS30;74444;48.226;16.348;2023-12-22T18:34:46;1.6;;1.6;1.5;;;;;;
83777;SPS30;74444;48.226;16.348;2023-12-22T18:39:46;1.3;;1.4;1.2;;;;;;
83777;SPS30;74444;48.226;16.348;2023-12-22T18:44:46;1.7;;1.7;1.6;;;;;;
83777;SPS30;74444;48.226;16.348;2023-12-22T18:49:46;1.6;;1.6;1.4;;;;;;
83777;SPS30;74444;48.226;16.348;2023-12-22T18:54:46;1.2;;1.2;1.1;;;;;;
83777;SPS30;74444;48.226;16.348;2023-12-22T18:59:46;1.6;;1.7;1.5;;;;;;
83777;SPS30;74444;48.226;16.348;2023-12-22T19:04:46;1.8;;2.0;1.7;;;;;;
83777;SPS30;74444;48.226;16.348;2023-12-22T19:09:46;1.2;;1.3;1.1;;;;;;
83777;SPS30;74444;48.226;16.348;2023-12-22T19:14:46;1.4;;1.5;1.3;;;;;;
83777;SPS30;74444;48.226;16.348;2023-12-22T19:19:46;1.6;;1.7;1.4;;;;;;
83777;SPS30;74444;48.226;16.348;2023-12-22T19:24:46;1.1;;1.2;1.0;;;;;;
83777;SPS30;74444;48.226;16.348;2023-12-22T19:29:46;2.8;;2.9;2.5;;;;;;
83777;SPS30;74444;48.226;16.348;2023-12-22T19:34:46;2.0;;2.1;1.9;;;;;;
83777;SPS30;74444;48.226;16.348;2023-12-22T19:39:46;2.4;;2.5;2.1;;;;;;
83777;SPS30;74444;48.226;16.348;2023-12-22T19:44:46;2.4;;2.5;2.1;;;;;;
83777;SPS30;74444;48.226;16.348;2023-12-22T19:49:46;2.5;;2.6;2.4;;;;;;
83777;SPS30;74444;48.226;16.348;2023-12-22T19:54:46;1.9;;2.0;1.8;;;;;;
83777;SPS30;74444;48.226;16.348;2023-12-22T19:59:46;2.3;;2.4;2.2;;;;;;
83777;SPS30;74444;48.226;16.348;2023-12-22T20:04:46;3.0;;3.1;2.8;;;;;;
83777;SPS30;74444;48.226;16.348;2023-12-22T20:09:46;3.0;;3.1;2.8;;;;;;
83777;SPS30;74444;48.226;16.348;2023-12-22T20:14:46;3.3;;3.4;3.1;;;;;;
83777;SPS30;74444;48.226;16.348;2023-12-22T20:19:46;3.8;;3.9;3.6;;;;;;
83777;SPS30;74444;48.226;16.348;2023-12-22T20:24:46;3.1;;3.2;2.9;;;;;;
83777;SPS30;74444;48.226;16.348;2023-12-22T20:29:46;3.3;;3.4;3.0;;;;;;
83777;SPS30;74444;48.226;16.348;2023-12-22T20:34:46;4.0;;4.1;3.8;;;;;;
83777;SPS30;74444;48.226;16.348;2023-12-22T20:51:21;4.6;;4.9;4.2;;;;;;
83777;SPS30;74444;48.226;16.348;2023-12-22T20:56:21;4.7;;5.0;4.3;;;;;;
83777;SPS30;74444;48.226;16.348;2023-12-22T21:01:22;8.7;;9.4;7.8;;;;;;
83777;SPS30;74444;48.226;16.348;2023-12-22T21:06:21;8.5;;9.6;7.3;;;;;;
83777;SPS30;74444;48.226;16.348;2023-12-22T21:11:21;4.7;;4.9;4.2;;;;;;
83777;SPS30;74444;48.226;16.348;2023-12-22T21:16:21;5.0;;5.3;4.5;;;;;;
83777;SPS30;74444;48.226;16.348;2023-12-22T21:21:21;4.8;;5.0;4.4;;;;;;
83777;SPS30;74444;48.226;16.348;2023-12-22T21:26:21;5.4;;5.6;4.9;;;;;;
83777;SPS30;74444;48.226;16.348;2023-12-22T21:31:21;5.9;;6.1;5.4;;;;;;
83777;SPS30;74444;48.226;16.348;2023-12-22T21:36:21;6.8;;7.1;6.3;;;;;;
83777;SPS30;74444;48.226;16.348;2023-12-22T21:41:21;4.2;;4.3;3.9;;;;;;
83777;SPS30;74444;48.226;16.348;2023-12-22T21:46:21;1.8;;1.9;1.7;;;;;;
83777;SPS30;74444;48.226;16.348;2023-12-22T21:51:23;1.5;;1.5;1.4;;;;;;
83777;SPS30;74444;48.226;16.348;2023-12-22T21:56:21;1.1;;1.2;1.0;;;;;;
83777;SPS30;74444;48.226;16.348;2023-12-22T22:01:21;1.5;;1.6;1.4;;;;;;
83777;SPS30;74444;48.226;16.348;2023-12-22T22:06:21;0.8;;0.8;0.7;;;;;;
83777;SPS30;74444;48.226;16.348;2023-12-22T22:11:21;1.2;;1.3;1.1;;;;;;
83777;SPS30;74444;48.226;16.348;2023-12-22T22:16:21;1.9;;2.0;1.8;;;;;;
83777;SPS30;74444;48.226;16.348;2023-12-22T22:21:21;1.3;;1.4;1.2;;;;;;
83777;SPS30;74444;48.226;16.348;2023-12-22T22:26:21;0.9;;1.0;0.9;;;;;;
83777;SPS30;74444;48.226;16.348;2023-12-22T22:31:21;1.6;;1.6;1.4;;;;;;
83777;SPS30;74444;48.226;16.348;2023-12-22T22:36:21;0.6;;0.6;0.5;;;;;;
83777;SPS30;74444;48.226;16.348;2023-12-22T22:41:21;0.8;;0.9;0.8;;;;;;
83777;SPS30;74444;48.226;16.348;2023-12-22T22:46:21;0.5;;0.6;0.5;;;;;;
83777;SPS30;74444;48.226;16.348;2023-12-22T22:51:22;0.7;;0.8;0.7;;;;;;
83777;SPS30;74444;48.226;16.348;2023-12-22T22:56:21;1.2;;1.3;1.1;;;;;;
83777;SPS30;74444;48.226;16.348;2023-12-22T23:01:21;0.7;;0.8;0.7;;;;;;
83777;SPS30;74444;48.226;16.348;2023-12-22T23:06:21;0.5;;0.6;0.5;;;;;;
83777;SPS30;74444;48.226;16.348;2023-12-22T23:11:21;0.5;;0.6;0.5;;;;;;
83777;SPS30;74444;48.226;16.348;2023-12-22T23:16:21;0.4;;0.4;0.4;;;;;;
83777;SPS30;74444;48.226;16.348;2023-12-22T23:21:21;0.2;;0.2;0.2;;;;;;
83777;SPS30;74444;48.226;16.348;2023-12-22T23:26:21;0.5;;0.5;0.5;;;;;;
83777;SPS30;74444;48.226;16.348;2023-12-22T23:31:21;0.2;;0.2;0.2;;;;;;
83777;SPS30;74444;48.226;16.348;2023-12-22T23:36:21;0.3;;0.3;0.3;;;;;;
83777;SPS30;74444;48.226;16.348;2023-12-22T23:41:21;0.4;;0.4;0.4;;;;;;
83777;SPS30;74444;48.226;16.348;2023-12-22T23:46:21;0.6;;0.6;0.5;;;;;;
83777;SPS30;74444;48.226;16.348;2023-12-22T23:51:25;0.4;;0.4;0.3;;;;;;
83777;SPS30;74444;48.226;16.348;2023-12-22T23:56:21;0.4;;0.4;0.4;;;;;;
